Time;durP1;ratioP1;P1;durP2;ratioP2;P2;SDS_P1;SDS_P2;PMS_P1;PMS_P2;Temp;Humidity;BMP_temperature;BMP_pressure;BME280_temperature;BME280_humidity;BME280_pressure;Samples;Min_cycle;Max_cycle;Signal;HPM_P1;HPM_P2
2023/10/17 04:02:51;;;;;;;2.73;2.30;;;6.80;75.80;;;;;;4935217;29;20515;-71
2023/10/17 04:05:18;;;;;;;3.50;2.93;;;6.70;76.10;;;;;;4935921;29;20448;-71
2023/10/17 04:07:51;;;;;;;2.90;2.60;;;6.70;76.10;;;;;;4935933;29;20440;-72
2023/10/17 04:10:20;;;;;;;2.43;2.13;;;6.80;76.00;;;;;;4935947;29;20436;-71
2023/10/17 04:13:16;;;;;;;2.60;2.03;;;6.70;76.40;;;;;;4916573;29;21033;-72
2023/10/17 04:15:44;;;;;;;3.20;2.50;;;6.70;76.50;;;;;;4916837;29;20453;-72
2023/10/17 04:18:12;;;;;;;2.40;2.13;;;6.80;76.40;;;;;;4917855;29;20532;-71
2023/10/17 04:20:41;;;;;;;2.70;2.30;;;6.80;76.20;;;;;;4920660;29;20440;-71
2023/10/17 04:23:21;;;;;;;2.10;1.80;;;6.80;76.20;;;;;;4920328;29;20493;-72
2023/10/17 04:25:54;;;;;;;2.50;2.30;;;6.80;76.30;;;;;;4920656;29;20457;-72
2023/10/17 04:28:26;;;;;;;2.10;1.90;;;6.90;76.10;;;;;;4920286;29;20809;-71
2023/10/17 04:30:56;;;;;;;3.07;2.50;;;7.00;75.80;;;;;;4920500;29;20472;-70
2023/10/17 04:33:28;;;;;;;2.83;2.37;;;6.90;76.00;;;;;;4920548;29;20519;-71
2023/10/17 04:35:59;;;;;;;2.70;2.50;;;6.90;75.70;;;;;;4920463;29;20528;-72
2023/10/17 04:38:36;;;;;;;2.50;2.07;;;6.90;75.80;;;;;;4920275;29;20488;-72
2023/10/17 04:41:17;;;;;;;2.43;2.23;;;6.90;75.70;;;;;;4920401;29;20520;-72
2023/10/17 04:43:44;;;;;;;2.70;2.00;;;6.90;75.70;;;;;;4920554;29;20436;-71
2023/10/17 04:46:11;;;;;;;5.87;3.10;;;6.90;75.80;;;;;;4920529;29;20456;-72
2023/10/17 04:48:40;;;;;;;3.00;2.50;;;6.90;75.90;;;;;;4920197;29;20475;-71
2023/10/17 04:51:25;;;;;;;2.50;2.20;;;6.90;75.80;;;;;;4920088;29;20527;-72
2023/10/17 04:53:51;;;;;;;2.70;2.20;;;6.90;75.90;;;;;;4920115;29;20441;-72
2023/10/17 04:56:22;;;;;;;3.10;2.20;;;7.00;75.80;;;;;;4920035;29;20467;-71
2023/10/17 04:58:53;;;;;;;2.40;2.20;;;7.00;75.80;;;;;;4919734;29;20705;-72
2023/10/17 05:01:39;;;;;;;3.57;2.67;;;6.80;76.20;;;;;;4919901;29;20480;-71
2023/10/17 05:04:18;;;;;;;3.27;2.50;;;6.90;76.20;;;;;;4920010;29;20798;-72
2023/10/17 05:07:14;;;;;;;2.67;2.40;;;6.90;76.00;;;;;;4920575;29;20447;-72
2023/10/17 06:18:17;;;;;;;3.30;3.00;;;6.80;77.60;;;;;;4918687;29;20851;-72
2023/10/17 06:26:46;;;;;;;4.60;4.20;;;7.10;76.90;;;;;;4917315;29;20814;-72
2023/10/17 06:32:06;;;;;;;3.70;3.40;;;7.20;76.60;;;;;;4918311;29;20452;-71
2023/10/17 06:34:33;;;;;;;4.10;3.73;;;7.20;76.50;;;;;;4918346;29;20464;-72
2023/10/17 06:37:01;;;;;;;3.70;3.40;;;7.30;76.20;;;;;;4917964;29;20939;-72
2023/10/17 06:39:36;;;;;;;3.80;3.40;;;7.40;76.00;;;;;;4918227;29;20464;-72
2023/10/17 06:42:14;;;;;;;3.87;3.00;;;7.40;76.10;;;;;;4917993;29;20511;-72
2023/10/17 06:44:51;;;;;;;3.07;2.80;;;7.50;75.60;;;;;;4918209;29;20803;-72
2023/10/17 06:47:22;;;;;;;3.27;2.97;;;7.60;75.70;;;;;;4918113;29;20469;-71
2023/10/17 06:52:54;;;;;;;3.27;2.97;;;7.80;75.20;;;;;;4917891;29;20543;-72
2023/10/17 06:55:21;;;;;;;3.37;3.07;;;7.90;75.10;;;;;;4917975;29;20436;-72
2023/10/17 06:57:50;;;;;;;2.90;2.70;;;7.90;74.80;;;;;;4917562;29;21056;-72
2023/10/17 07:00:24;;;;;;;8.37;7.77;;;8.00;75.00;;;;;;4917911;29;20461;-71
2023/10/17 07:02:56;;;;;;;5.67;5.13;;;8.10;74.90;;;;;;4918070;29;20425;-73
2023/10/17 07:05:25;;;;;;;3.57;2.80;;;8.20;75.00;;;;;;4917795;29;20820;-72
2023/10/17 07:07:53;;;;;;;6.23;3.07;;;8.30;75.00;;;;;;4917740;29;20460;-72
2023/10/17 07:10:37;;;;;;;3.70;3.30;;;8.40;74.20;;;;;;4917505;29;20445;-72
2023/10/17 07:13:42;;;;;;;3.47;3.17;;;8.50;74.60;;;;;;4917675;29;20429;-73
2023/10/17 07:16:12;;;;;;;4.20;2.90;;;8.60;73.90;;;;;;4917642;29;20480;-72
2023/10/17 07:18:45;;;;;;;2.90;2.50;;;8.50;73.80;;;;;;4917248;29;20974;-72
2023/10/17 07:21:22;;;;;;;3.43;3.13;;;8.30;73.80;;;;;;4917219;29;20528;-72
2023/10/17 07:23:49;;;;;;;3.20;2.90;;;8.40;74.00;;;;;;4917824;29;20437;-72
2023/10/17 07:26:35;;;;;;;3.70;3.23;;;8.30;74.10;;;;;;4917442;29;20445;-73
2023/10/17 07:29:05;;;;;;;4.17;3.07;;;8.30;74.00;;;;;;4917734;29;20476;-72
2023/10/17 07:31:33;;;;;;;3.40;3.10;;;8.30;73.90;;;;;;4917372;29;20885;-72
2023/10/17 07:34:16;;;;;;;3.10;2.80;;;8.20;74.00;;;;;;4917337;29;20475;-72
2023/10/17 07:36:47;;;;;;;4.20;3.20;;;8.30;74.50;;;;;;4917399;29;20432;-72
2023/10/17 07:39:22;;;;;;;3.40;3.10;;;8.60;74.10;;;;;;4917217;29;20516;-72
2023/10/17 07:41:54;;;;;;;3.37;3.07;;;8.80;73.20;;;;;;4917175;29;20504;-72
2023/10/17 07:44:21;;;;;;;3.43;2.93;;;8.90;73.40;;;;;;4917319;29;20440;-72
2023/10/17 07:46:51;;;;;;;5.30;3.83;;;8.60;73.90;;;;;;4917114;29;20822;-72
2023/10/17 07:49:25;;;;;;;3.10;2.80;;;8.40;73.90;;;;;;4917146;29;20433;-71
2023/10/17 07:51:52;;;;;;;3.67;3.30;;;8.60;74.60;;;;;;4917324;29;20499;-72
2023/10/17 07:54:19;;;;;;;4.07;3.57;;;8.90;73.70;;;;;;4916560;29;20864;-71
2023/10/17 07:56:50;;;;;;;3.33;2.90;;;8.80;73.50;;;;;;4917079;29;20445;-71
2023/10/17 07:59:18;;;;;;;2.97;2.67;;;8.80;73.90;;;;;;4917044;29;20926;-72
2023/10/17 08:01:46;;;;;;;5.13;3.67;;;8.90;73.90;;;;;;4917556;29;21096;-71
2023/10/17 08:04:17;;;;;;;3.60;2.83;;;9.00;72.80;;;;;;4920348;29;20456;-74
2023/10/17 08:06:45;;;;;;;3.80;3.30;;;9.10;72.80;;;;;;4919574;29;20495;-73
2023/10/17 08:09:23;;;;;;;3.67;3.27;;;8.70;73.10;;;;;;4917658;29;20444;-72
2023/10/17 08:11:51;;;;;;;4.60;4.20;;;8.60;74.00;;;;;;4917092;29;20473;-71
2023/10/17 08:14:22;;;;;;;3.60;3.30;;;8.90;73.80;;;;;;4916983;29;20445;-73
2023/10/17 08:16:50;;;;;;;3.87;3.47;;;9.20;73.40;;;;;;4916755;29;20437;-72
2023/10/17 08:19:21;;;;;;;3.50;3.20;;;9.30;72.30;;;;;;4916978;29;20859;-73
2023/10/17 08:21:59;;;;;;;4.60;3.50;;;8.90;72.70;;;;;;4916873;29;20473;-73
2023/10/17 08:24:29;;;;;;;5.00;3.77;;;9.00;74.00;;;;;;4916945;29;20468;-73
2023/10/17 08:29:40;;;;;;;5.43;4.93;;;8.70;74.70;;;;;;4916436;29;20927;-74
2023/10/17 08:32:29;;;;;;;4.90;4.50;;;8.60;75.00;;;;;;4916637;29;20464;-74
2023/10/17 08:34:57;;;;;;;5.10;4.57;;;8.70;75.00;;;;;;4916490;29;20432;-74
2023/10/17 08:37:28;;;;;;;6.03;5.43;;;8.80;75.20;;;;;;4916635;29;20448;-74
2023/10/17 08:39:56;;;;;;;5.30;4.80;;;9.00;74.50;;;;;;4916769;29;20499;-74
2023/10/17 08:42:31;;;;;;;5.60;5.10;;;9.00;74.00;;;;;;4916330;29;20511;-74
2023/10/17 08:44:59;;;;;;;4.80;4.40;;;9.00;74.10;;;;;;4916685;29;20440;-73
2023/10/17 08:47:30;;;;;;;5.47;5.07;;;9.10;74.20;;;;;;4916621;29;20480;-74
2023/10/17 08:50:04;;;;;;;5.30;4.00;;;9.10;74.40;;;;;;4916688;29;20441;-73
2023/10/17 08:52:35;;;;;;;4.93;4.43;;;9.20;74.20;;;;;;4916503;29;20476;-74
2023/10/17 08:55:03;;;;;;;5.73;4.67;;;9.30;73.40;;;;;;4916320;29;20520;-73
2023/10/17 08:57:30;;;;;;;4.40;4.10;;;8.90;74.70;;;;;;4916555;29;20511;-73
2023/10/17 09:00:22;;;;;;;4.67;4.27;;;8.70;75.40;;;;;;4916708;29;20461;-73
2023/10/17 09:02:56;;;;;;;5.57;5.07;;;9.00;75.40;;;;;;4916028;29;20524;-73
2023/10/17 09:05:27;;;;;;;4.53;4.13;;;9.20;75.00;;;;;;4920033;29;20437;-73
2023/10/17 09:07:56;;;;;;;4.87;4.47;;;9.00;75.60;;;;;;4919890;29;20476;-73
2023/10/17 09:10:28;;;;;;;5.50;5.00;;;9.00;75.80;;;;;;4919426;29;20826;-74
2023/10/17 09:15:49;;;;;;;5.47;4.90;;;9.30;75.10;;;;;;4919933;29;20461;-73
2023/10/17 09:18:23;;;;;;;4.90;4.40;;;9.40;74.80;;;;;;4919771;29;20469;-73
2023/10/17 09:20:51;;;;;;;5.23;4.83;;;9.40;74.90;;;;;;4919621;29;20461;-73
2023/10/17 09:23:23;;;;;;;5.40;4.77;;;9.80;74.20;;;;;;4919656;29;20453;-70
2023/10/17 09:25:55;;;;;;;5.20;4.27;;;9.90;73.20;;;;;;4919272;29;20897;-74
2023/10/17 09:28:24;;;;;;;5.53;4.80;;;9.80;73.90;;;;;;4919593;29;20445;-72
2023/10/17 09:30:58;;;;;;;5.03;4.60;;;9.90;74.00;;;;;;4919447;29;20504;-73
2023/10/17 09:33:30;;;;;;;4.13;3.83;;;10.00;73.90;;;;;;4919359;29;21021;-73
2023/10/17 09:36:00;;;;;;;5.10;4.60;;;10.00;73.50;;;;;;4919600;29;20500;-73
2023/10/17 09:38:27;;;;;;;5.20;4.70;;;10.10;73.80;;;;;;4919460;29;20535;-73
2023/10/17 09:40:56;;;;;;;4.87;4.47;;;10.20;72.80;;;;;;4919343;29;20472;-74
2023/10/17 09:43:22;;;;;;;5.27;4.70;;;10.30;73.10;;;;;;4919323;29;20445;-74
2023/10/17 09:45:52;;;;;;;4.97;4.57;;;10.40;73.80;;;;;;4919311;29;20547;-74
2023/10/17 09:48:26;;;;;;;5.10;4.60;;;10.40;73.60;;;;;;4919165;29;20449;-72
2023/10/17 09:50:56;;;;;;;5.43;4.93;;;10.40;73.10;;;;;;4919137;29;20506;-74
2023/10/17 09:53:31;;;;;;;5.83;5.33;;;10.50;73.00;;;;;;4919079;29;20477;-74
2023/10/17 09:56:01;;;;;;;6.30;4.40;;;10.30;73.00;;;;;;4918804;29;20439;-73
2023/10/17 09:58:32;;;;;;;6.70;5.03;;;10.30;73.70;;;;;;4918744;29;21013;-74
2023/10/17 10:01:05;;;;;;;5.07;4.67;;;10.20;73.70;;;;;;4919164;29;20618;-73
2023/10/17 10:03:35;;;;;;;4.83;4.33;;;10.30;73.70;;;;;;4919015;29;20440;-73
2023/10/17 10:06:21;;;;;;;5.37;4.53;;;10.40;74.00;;;;;;4918634;29;20973;-74
2023/10/17 10:08:49;;;;;;;5.20;4.80;;;10.50;74.10;;;;;;4918946;29;20599;-73
2023/10/17 10:11:16;;;;;;;5.57;4.77;;;10.40;74.00;;;;;;4919077;29;20464;-73
2023/10/17 10:14:04;;;;;;;6.17;4.87;;;10.70;73.70;;;;;;5040740;23;20524;-73
2023/10/17 10:16:50;;;;;;;5.27;4.77;;;10.90;73.10;;;;;;4976117;28;20521;-73
2023/10/17 10:19:17;;;;;;;4.43;4.03;;;10.90;73.60;;;;;;4976167;28;20580;-73
2023/10/17 10:21:55;;;;;;;5.53;5.13;;;10.70;72.70;;;;;;4976149;28;20528;-74
2023/10/17 10:24:27;;;;;;;5.60;4.50;;;10.70;73.10;;;;;;4976087;28;20466;-73
2023/10/17 10:27:25;;;;;;;5.20;4.70;;;10.90;73.30;;;;;;4976327;28;20474;-74
2023/10/17 10:29:53;;;;;;;5.70;5.20;;;10.80;73.20;;;;;;4976519;28;20430;-75
2023/10/17 10:32:34;;;;;;;5.30;4.80;;;10.70;73.30;;;;;;4975657;28;20943;-73
2023/10/17 10:35:01;;;;;;;5.60;5.07;;;10.80;73.70;;;;;;4976074;28;20462;-73
2023/10/17 10:37:28;;;;;;;6.90;5.10;;;10.80;73.30;;;;;;4975600;28;20446;-73
2023/10/17 10:40:16;;;;;;;5.27;4.87;;;10.80;73.10;;;;;;4975954;28;20482;-72
2023/10/17 10:42:45;;;;;;;5.90;5.37;;;10.80;73.10;;;;;;4976027;28;20858;-73
2023/10/17 10:45:29;;;;;;;5.70;5.30;;;10.80;73.40;;;;;;4975379;28;20849;-73
2023/10/17 10:47:58;;;;;;;5.40;4.97;;;10.90;73.40;;;;;;4974975;28;20521;-74
2023/10/17 10:50:27;;;;;;;5.37;4.87;;;10.90;73.00;;;;;;4975378;28;20450;-73
2023/10/17 10:52:54;;;;;;;6.10;5.50;;;11.10;72.50;;;;;;4975638;28;20447;-73
2023/10/17 10:55:24;;;;;;;5.30;4.80;;;11.10;71.80;;;;;;4975649;28;20944;-73
2023/10/17 10:57:51;;;;;;;5.83;5.33;;;11.00;72.60;;;;;;4976964;28;20427;-72
2023/10/17 11:00:18;;;;;;;4.97;4.50;;;11.00;72.20;;;;;;4976498;28;20493;-74
2023/10/17 11:02:46;;;;;;;5.83;5.23;;;11.30;72.30;;;;;;4975226;28;20458;-72
2023/10/17 11:05:14;;;;;;;7.47;6.87;;;11.30;71.60;;;;;;4975613;28;20470;-73
2023/10/17 11:07:42;;;;;;;6.13;5.63;;;11.20;71.90;;;;;;4975387;28;20465;-73
2023/10/17 11:10:11;;;;;;;6.03;5.53;;;11.20;72.00;;;;;;4976102;28;20442;-73
2023/10/17 11:12:39;;;;;;;5.23;4.80;;;11.30;72.10;;;;;;4975936;28;20505;-73
2023/10/17 11:15:12;;;;;;;6.37;5.77;;;11.20;71.80;;;;;;4975382;28;20481;-73
2023/10/17 11:17:40;;;;;;;6.53;5.93;;;11.10;72.30;;;;;;4975185;28;20439;-73
2023/10/17 11:20:14;;;;;;;5.67;5.20;;;11.00;72.00;;;;;;4974932;28;20513;-73
2023/10/17 11:22:42;;;;;;;5.97;5.37;;;11.00;72.20;;;;;;4975053;28;20505;-72
2023/10/17 11:25:13;;;;;;;6.37;5.07;;;11.30;72.30;;;;;;4974659;28;20836;-72
2023/10/17 11:27:53;;;;;;;6.13;5.63;;;11.40;71.90;;;;;;4974301;28;20872;-72
2023/10/17 11:30:20;;;;;;;5.30;4.80;;;11.40;71.70;;;;;;4974999;28;20521;-73
2023/10/17 11:32:49;;;;;;;5.70;5.07;;;11.40;72.10;;;;;;4975122;28;20454;-74
2023/10/17 11:35:29;;;;;;;5.20;4.80;;;11.70;72.10;;;;;;4975077;28;20479;-74
2023/10/17 11:37:56;;;;;;;7.30;6.60;;;11.80;71.10;;;;;;4974735;28;20933;-74
2023/10/17 11:40:46;;;;;;;5.53;5.00;;;11.90;71.40;;;;;;4974759;28;20895;-75
2023/10/17 11:43:28;;;;;;;5.33;4.93;;;12.00;70.10;;;;;;4972217;28;20465;-73
2023/10/17 11:45:55;;;;;;;6.00;5.50;;;12.00;70.90;;;;;;4974718;28;20903;-74
2023/10/17 11:48:28;;;;;;;5.57;5.07;;;12.30;70.60;;;;;;4974755;28;20457;-74
2023/10/17 11:51:05;;;;;;;5.07;4.67;;;12.50;68.80;;;;;;4974719;28;20441;-73
2023/10/17 11:53:32;;;;;;;5.43;4.93;;;12.50;69.70;;;;;;4974673;28;20544;-74
2023/10/17 11:56:01;;;;;;;6.00;5.50;;;12.60;68.90;;;;;;4974656;28;20449;-73
2023/10/17 11:58:30;;;;;;;5.30;4.90;;;12.50;69.30;;;;;;4974282;28;20450;-73
2023/10/17 12:00:57;;;;;;;5.60;5.10;;;12.30;69.70;;;;;;4974509;28;20450;-74
2023/10/17 12:03:26;;;;;;;5.90;5.07;;;12.40;69.90;;;;;;4974607;28;20470;-74
2023/10/17 12:05:53;;;;;;;5.83;5.33;;;12.40;70.30;;;;;;4975258;28;20481;-77
2023/10/17 12:08:23;;;;;;;6.27;5.77;;;12.40;70.50;;;;;;4974878;28;20454;-75
2023/10/17 12:10:50;;;;;;;6.50;5.90;;;12.40;70.60;;;;;;4975035;28;20438;-74
2023/10/17 12:13:18;;;;;;;5.87;5.37;;;12.40;69.90;;;;;;4975018;28;20477;-72
2023/10/17 12:15:46;;;;;;;5.93;5.47;;;12.40;70.60;;;;;;4974776;28;20865;-73
2023/10/17 12:18:13;;;;;;;4.97;4.47;;;12.30;70.60;;;;;;4975262;28;20461;-73
2023/10/17 12:20:41;;;;;;;5.87;4.53;;;12.10;71.60;;;;;;4975046;28;20482;-74
2023/10/17 12:23:09;;;;;;;5.67;5.17;;;12.10;71.60;;;;;;4974473;28;20966;-73
2023/10/17 12:25:36;;;;;;;5.87;5.30;;;12.30;71.40;;;;;;4975124;28;20477;-74
2023/10/17 12:28:06;;;;;;;5.70;5.20;;;12.60;70.10;;;;;;4974286;28;20453;-73
2023/10/17 12:30:36;;;;;;;5.60;5.20;;;12.70;70.30;;;;;;4974433;28;20445;-72
2023/10/17 12:33:06;;;;;;;5.83;5.27;;;12.90;69.90;;;;;;4974332;28;20469;-72
2023/10/17 12:35:33;;;;;;;7.33;5.00;;;12.80;69.40;;;;;;4974351;28;20826;-74
2023/10/17 12:38:06;;;;;;;5.13;4.63;;;12.70;69.50;;;;;;4974736;28;20565;-72
2023/10/17 12:40:33;;;;;;;5.47;4.73;;;12.90;70.00;;;;;;4977011;28;20846;-74
2023/10/17 12:43:01;;;;;;;4.70;4.30;;;13.00;70.10;;;;;;4978082;28;20453;-72
2023/10/17 12:45:30;;;;;;;5.87;5.47;;;13.10;69.10;;;;;;4977685;28;21058;-72
2023/10/17 12:47:56;;;;;;;5.50;5.00;;;13.10;69.50;;;;;;4977646;28;20449;-73
2023/10/17 12:50:24;;;;;;;4.17;3.77;;;13.10;69.50;;;;;;4977674;28;20962;-73
2023/10/17 12:52:51;;;;;;;5.30;4.80;;;12.90;69.70;;;;;;4977957;28;20478;-72
2023/10/17 12:55:19;;;;;;;5.60;5.20;;;12.90;69.90;;;;;;4977934;28;20470;-72
2023/10/17 12:57:46;;;;;;;6.10;5.50;;;12.90;69.90;;;;;;4977764;28;20478;-73
2023/10/17 13:00:14;;;;;;;5.50;5.10;;;12.90;69.90;;;;;;4977565;28;20482;-73
2023/10/17 13:02:42;;;;;;;5.57;5.17;;;12.90;70.20;;;;;;4977736;28;20448;-73
2023/10/17 13:05:10;;;;;;;5.87;5.37;;;12.90;70.40;;;;;;4977541;28;20476;-73
2023/10/17 13:07:38;;;;;;;5.47;4.50;;;12.90;69.90;;;;;;4977591;28;20871;-73
2023/10/17 13:10:07;;;;;;;5.17;4.67;;;12.90;70.10;;;;;;4977348;28;20822;-73
2023/10/17 13:12:33;;;;;;;6.30;5.80;;;12.80;70.70;;;;;;4977319;28;20446;-73
2023/10/17 13:15:00;;;;;;;5.70;5.20;;;12.70;70.80;;;;;;4977064;28;20504;-73
2023/10/17 13:17:28;;;;;;;5.83;5.33;;;12.70;70.80;;;;;;4977584;28;20441;-72
2023/10/17 13:19:57;;;;;;;5.37;4.87;;;13.00;70.60;;;;;;4977722;28;20482;-73
2023/10/17 13:22:24;;;;;;;5.30;4.77;;;13.00;70.80;;;;;;4980954;28;20472;-73
2023/10/17 13:24:52;;;;;;;5.20;4.80;;;13.00;70.60;;;;;;4979227;28;20469;-72
2023/10/17 13:27:18;;;;;;;4.73;4.30;;;12.70;70.60;;;;;;4977310;28;20446;-72
2023/10/17 13:29:46;;;;;;;5.00;4.60;;;12.90;71.00;;;;;;4976870;28;20931;-73
2023/10/17 13:32:13;;;;;;;4.63;4.17;;;12.90;70.70;;;;;;4977785;28;20459;-73
2023/10/17 13:34:39;;;;;;;4.90;4.50;;;12.90;71.00;;;;;;4977571;28;20850;-74
2023/10/17 13:37:07;;;;;;;5.83;5.33;;;12.70;71.30;;;;;;4976995;28;20829;-73
2023/10/17 13:39:34;;;;;;;5.83;5.33;;;12.80;71.60;;;;;;4977279;28;20576;-73
2023/10/17 13:42:03;;;;;;;3.77;3.47;;;13.10;71.50;;;;;;4977105;28;20449;-74
2023/10/17 13:44:30;;;;;;;4.87;4.37;;;13.20;70.40;;;;;;4977620;28;20509;-73
2023/10/17 13:46:57;;;;;;;5.80;5.30;;;13.30;69.90;;;;;;4977747;28;20825;-73
2023/10/17 13:49:24;;;;;;;5.03;4.63;;;13.20;70.40;;;;;;4977725;28;20497;-74
2023/10/17 13:51:50;;;;;;;5.33;4.17;;;13.20;70.00;;;;;;4976650;28;20962;-74
2023/10/17 13:54:17;;;;;;;4.67;4.27;;;12.90;70.50;;;;;;4977400;28;20840;-73
2023/10/17 13:56:44;;;;;;;5.00;4.50;;;12.80;70.90;;;;;;4977480;28;20450;-74
2023/10/17 13:59:13;;;;;;;4.90;4.50;;;12.70;71.10;;;;;;4977859;28;20804;-72
2023/10/17 14:01:45;;;;;;;4.40;4.07;;;12.80;70.80;;;;;;4977633;28;20815;-72
2023/10/17 14:04:12;;;;;;;4.30;3.90;;;12.90;71.00;;;;;;4977175;28;20473;-72
2023/10/17 14:06:39;;;;;;;4.20;3.87;;;13.00;70.80;;;;;;4977013;28;20940;-73
2023/10/17 14:09:14;;;;;;;4.63;4.33;;;13.00;70.30;;;;;;4978043;28;21010;-73
2023/10/17 14:11:42;;;;;;;4.13;3.73;;;13.00;70.80;;;;;;4977811;28;20429;-73
2023/10/17 14:14:10;;;;;;;4.97;4.57;;;13.00;70.70;;;;;;4976481;28;20474;-73
2023/10/17 14:16:41;;;;;;;4.23;3.83;;;13.10;70.70;;;;;;4976334;28;20545;-75
2023/10/17 14:19:15;;;;;;;3.97;3.57;;;13.10;70.60;;;;;;4976627;28;20480;-75
2023/10/17 14:21:44;;;;;;;4.17;3.87;;;13.00;70.90;;;;;;4976384;28;20444;-76
2023/10/17 14:24:11;;;;;;;4.40;4.07;;;13.10;70.90;;;;;;4976644;28;20465;-76
2023/10/17 14:26:37;;;;;;;5.10;4.70;;;13.20;70.40;;;;;;4976351;28;20473;-75
2023/10/17 14:29:05;;;;;;;5.40;5.00;;;13.10;70.80;;;;;;4976495;28;20485;-73
2023/10/17 14:31:32;;;;;;;4.23;3.93;;;13.00;70.50;;;;;;4976302;28;20442;-73
2023/10/17 14:34:00;;;;;;;5.03;4.43;;;13.00;71.00;;;;;;4976223;28;20477;-72
2023/10/17 14:36:28;;;;;;;3.70;3.40;;;13.20;70.80;;;;;;4976610;28;20452;-74
2023/10/17 14:38:55;;;;;;;4.80;4.30;;;13.20;70.50;;;;;;4980384;28;20939;-74
2023/10/17 14:41:23;;;;;;;4.43;4.07;;;13.30;69.90;;;;;;4980755;28;20513;-74
2023/10/17 14:43:50;;;;;;;4.50;4.10;;;13.30;70.20;;;;;;4977106;28;20877;-73
2023/10/17 14:46:17;;;;;;;5.13;4.73;;;13.40;70.10;;;;;;4975834;28;20450;-72
2023/10/17 14:48:45;;;;;;;5.33;4.90;;;13.30;69.90;;;;;;4976717;28;20450;-74
2023/10/17 14:51:13;;;;;;;4.83;4.43;;;13.30;69.90;;;;;;4977257;28;20442;-72
2023/10/17 14:53:42;;;;;;;4.10;3.77;;;13.30;70.40;;;;;;4977915;28;20485;-72
2023/10/17 14:56:12;;;;;;;3.60;3.30;;;13.40;70.20;;;;;;4977608;28;20454;-73
2023/10/17 14:58:40;;;;;;;4.10;3.70;;;13.30;69.80;;;;;;4977760;28;20542;-72
2023/10/17 15:01:07;;;;;;;3.87;3.50;;;13.30;69.70;;;;;;4976864;28;20882;-72
2023/10/17 15:03:34;;;;;;;4.47;3.57;;;13.40;69.70;;;;;;4976690;28;20465;-72
2023/10/17 15:06:01;;;;;;;4.70;4.30;;;13.50;69.10;;;;;;4976354;28;20457;-73
2023/10/17 15:08:30;;;;;;;4.80;3.90;;;13.60;69.00;;;;;;4976490;28;20446;-74
2023/10/17 15:10:57;;;;;;;3.73;3.43;;;13.70;68.70;;;;;;4977290;28;20943;-72
2023/10/17 15:13:27;;;;;;;4.07;3.77;;;13.70;68.80;;;;;;4975866;28;20466;-73
2023/10/17 15:15:53;;;;;;;4.27;3.87;;;13.70;68.60;;;;;;4975816;28;20505;-73
2023/10/17 15:18:20;;;;;;;4.30;3.90;;;13.70;69.00;;;;;;4976177;28;20867;-71
2023/10/17 15:20:47;;;;;;;3.93;3.63;;;13.70;69.10;;;;;;4976075;28;20492;-73
2023/10/17 15:23:13;;;;;;;3.93;3.57;;;13.60;69.00;;;;;;4976610;28;20469;-72
2023/10/17 15:25:41;;;;;;;4.27;3.97;;;13.50;69.60;;;;;;4977928;28;20450;-71
2023/10/17 15:28:08;;;;;;;4.17;3.87;;;13.60;69.50;;;;;;4976651;28;20454;-70
2023/10/17 15:30:37;;;;;;;4.13;3.83;;;13.50;69.20;;;;;;4976794;28;20450;-70
2023/10/17 15:33:05;;;;;;;4.97;4.27;;;13.50;69.40;;;;;;4977390;28;20462;-70
2023/10/17 15:35:33;;;;;;;4.70;4.30;;;13.30;69.70;;;;;;4975423;28;20548;-71
2023/10/17 15:38:00;;;;;;;4.10;3.70;;;13.40;69.90;;;;;;4975905;28;20454;-69
2023/10/17 15:40:27;;;;;;;5.00;4.60;;;13.40;70.00;;;;;;4976593;28;20488;-70
2023/10/17 15:42:55;;;;;;;5.77;4.10;;;13.30;70.20;;;;;;4976480;28;20442;-70
2023/10/17 15:45:22;;;;;;;6.77;5.00;;;13.30;69.90;;;;;;4975723;28;20954;-70
2023/10/17 15:47:51;;;;;;;5.03;4.53;;;13.40;70.00;;;;;;4976237;28;20454;-70
2023/10/17 15:50:18;;;;;;;4.00;3.60;;;13.40;70.30;;;;;;4976064;28;20446;-70
2023/10/17 15:52:45;;;;;;;4.20;3.90;;;13.40;70.30;;;;;;4976285;28;20460;-69
2023/10/17 15:55:12;;;;;;;3.80;3.50;;;13.40;70.20;;;;;;4976235;28;20469;-70
2023/10/17 15:57:40;;;;;;;3.97;3.67;;;13.30;70.50;;;;;;4976090;28;20488;-69
2023/10/17 16:00:15;;;;;;;4.30;3.90;;;13.30;70.20;;;;;;4975600;28;20560;-70
2023/10/17 16:02:44;;;;;;;3.50;3.20;;;13.30;70.30;;;;;;4975878;28;20521;-68
2023/10/17 16:05:11;;;;;;;3.60;3.30;;;13.30;70.30;;;;;;4976270;28;20466;-70
2023/10/17 16:07:39;;;;;;;4.30;4.00;;;13.40;70.20;;;;;;4974870;28;20876;-70
2023/10/17 16:10:07;;;;;;;3.97;3.67;;;13.40;70.10;;;;;;4975581;28;20454;-70
2023/10/17 16:12:34;;;;;;;5.37;4.97;;;13.40;70.00;;;;;;4975490;28;20445;-70
2023/10/17 16:15:00;;;;;;;4.40;4.00;;;13.40;69.90;;;;;;4977815;28;20546;-71
2023/10/17 16:17:28;;;;;;;5.70;5.20;;;13.30;70.20;;;;;;4979760;28;20448;-71
2023/10/17 16:19:55;;;;;;;4.07;3.70;;;13.30;70.20;;;;;;4979088;28;20454;-70
2023/10/17 16:22:22;;;;;;;5.83;5.33;;;13.30;70.20;;;;;;4978519;28;20900;-71
2023/10/17 16:24:49;;;;;;;4.57;4.17;;;13.30;70.00;;;;;;4979572;28;20811;-69
2023/10/17 16:27:16;;;;;;;4.67;4.27;;;13.30;70.00;;;;;;4979607;28;20453;-72
2023/10/17 16:29:43;;;;;;;4.77;4.40;;;13.30;69.90;;;;;;4979011;28;20939;-73
2023/10/17 16:32:11;;;;;;;7.00;6.40;;;13.20;70.00;;;;;;4979195;28;20446;-73
2023/10/17 16:34:42;;;;;;;7.43;6.90;;;13.20;70.10;;;;;;4979557;28;20470;-72
2023/10/17 16:37:09;;;;;;;7.40;6.80;;;13.20;70.10;;;;;;4979215;28;20942;-73
2023/10/17 16:39:36;;;;;;;7.93;7.33;;;13.20;70.20;;;;;;4979355;28;20452;-72
2023/10/17 16:42:03;;;;;;;8.30;6.80;;;13.10;70.20;;;;;;4979241;28;20485;-74
2023/10/17 16:44:30;;;;;;;5.63;5.23;;;13.10;70.30;;;;;;4979073;28;20481;-74
2023/10/17 16:46:57;;;;;;;5.77;5.23;;;13.10;70.50;;;;;;4978728;28;20450;-72
2023/10/17 16:49:23;;;;;;;4.90;4.50;;;13.00;70.70;;;;;;4979164;28;20456;-74
2023/10/17 16:51:51;;;;;;;5.80;5.30;;;13.00;70.70;;;;;;4978601;28;20449;-73
2023/10/17 16:54:18;;;;;;;5.10;4.60;;;12.80;71.40;;;;;;4978552;28;20465;-73
2023/10/17 16:56:45;;;;;;;4.67;4.23;;;12.40;72.30;;;;;;4979376;28;20454;-72
2023/10/17 16:59:12;;;;;;;4.13;3.77;;;12.40;72.60;;;;;;4979702;28;20449;-72
2023/10/17 17:01:39;;;;;;;4.33;3.70;;;12.30;72.70;;;;;;4979068;28;20473;-72
2023/10/17 17:04:07;;;;;;;4.90;4.43;;;11.90;73.60;;;;;;4980947;28;20971;-73
2023/10/17 17:06:34;;;;;;;4.60;4.20;;;11.60;74.40;;;;;;4980478;28;20449;-73
2023/10/17 17:09:02;;;;;;;5.07;4.57;;;11.50;74.80;;;;;;4979543;28;20449;-72
2023/10/17 17:11:28;;;;;;;3.87;3.57;;;11.20;75.50;;;;;;4979197;28;20450;-73
2023/10/17 17:13:55;;;;;;;5.03;4.63;;;11.00;76.10;;;;;;4979411;28;20482;-74
2023/10/17 17:16:22;;;;;;;5.00;4.60;;;10.90;76.40;;;;;;4978787;28;20450;-74
2023/10/17 17:18:49;;;;;;;5.17;4.67;;;10.80;76.60;;;;;;4978352;28;20477;-74
2023/10/17 17:21:16;;;;;;;4.77;4.37;;;10.80;76.60;;;;;;4977613;28;20496;-72
2023/10/17 17:23:43;;;;;;;4.90;4.27;;;10.70;76.70;;;;;;4978209;28;20470;-73
2023/10/17 17:26:16;;;;;;;7.27;3.63;;;10.70;76.90;;;;;;4977663;28;20450;-72
2023/10/17 17:28:43;;;;;;;4.40;4.10;;;10.80;76.60;;;;;;4978095;28;20458;-73
2023/10/17 17:31:10;;;;;;;4.87;4.47;;;10.70;76.70;;;;;;4977628;28;20481;-72
2023/10/17 17:33:37;;;;;;;4.87;4.50;;;10.80;76.80;;;;;;4977552;28;20470;-72
2023/10/17 17:36:05;;;;;;;4.83;4.43;;;10.80;76.80;;;;;;4977648;28;20808;-74
2023/10/17 17:38:33;;;;;;;5.10;4.70;;;10.70;76.80;;;;;;4977681;28;20465;-74
2023/10/17 17:40:59;;;;;;;5.60;5.10;;;10.70;76.80;;;;;;4977848;28;20513;-73
2023/10/17 17:43:29;;;;;;;4.67;4.30;;;10.70;76.90;;;;;;4977330;28;20466;-74
2023/10/17 17:45:55;;;;;;;4.27;3.97;;;10.90;76.50;;;;;;4977364;28;20453;-73
2023/10/17 17:48:24;;;;;;;4.83;4.43;;;10.90;76.30;;;;;;4977597;28;20442;-72
2023/10/17 17:50:50;;;;;;;5.47;4.93;;;11.00;76.20;;;;;;4977576;28;20446;-72
2023/10/17 17:53:17;;;;;;;5.10;4.70;;;11.10;75.70;;;;;;4977060;28;20478;-73
2023/10/17 17:55:48;;;;;;;5.20;4.80;;;11.20;75.50;;;;;;4977521;28;20453;-73
2023/10/17 17:58:15;;;;;;;5.50;5.00;;;11.20;75.20;;;;;;4976940;28;20434;-73
2023/10/17 18:00:43;;;;;;;4.67;4.30;;;11.10;75.40;;;;;;4977362;28;20497;-74
2023/10/17 18:03:11;;;;;;;5.30;4.90;;;11.20;75.40;;;;;;4976849;28;20851;-74
2023/10/17 18:05:38;;;;;;;6.00;5.40;;;11.20;75.20;;;;;;4976684;28;20449;-76
2023/10/17 18:08:06;;;;;;;5.90;5.40;;;11.30;75.00;;;;;;4976862;28;20530;-74
2023/10/17 18:10:34;;;;;;;6.03;5.17;;;11.30;74.90;;;;;;4976951;28;20537;-74
2023/10/17 18:13:01;;;;;;;4.83;4.43;;;11.40;74.80;;;;;;4976510;28;20450;-74
2023/10/17 18:15:32;;;;;;;5.73;4.80;;;11.40;74.70;;;;;;4976589;28;20462;-74
2023/10/17 18:18:02;;;;;;;4.97;4.50;;;11.40;74.70;;;;;;4976456;28;20540;-74
2023/10/17 18:20:29;;;;;;;5.50;5.00;;;11.40;74.60;;;;;;4976415;28;20469;-74
2023/10/17 18:22:56;;;;;;;4.93;4.30;;;11.40;74.60;;;;;;4976654;28;20446;-74
2023/10/17 18:25:23;;;;;;;5.70;5.30;;;11.40;74.60;;;;;;4976460;28;20449;-74
2023/10/17 18:27:52;;;;;;;4.73;4.33;;;11.40;74.50;;;;;;4976586;28;20446;-74
2023/10/17 18:30:20;;;;;;;4.50;4.10;;;11.40;74.50;;;;;;4976491;28;20505;-74
2023/10/17 18:32:47;;;;;;;5.00;4.60;;;11.30;74.60;;;;;;4976354;28;20525;-74